CYRB

Resolute Bay Airport

Resolute Bay, Canada
METAR CYRB 180600Z 26009KT 4SM -SN FEW020 OVC035 M30/M33 A2990 RMK SC2SC6 SLP139
Observed Flight Rules
Feb-18 @ 06:00 UTC (an hour ago) Marginal Visual Flight Rules
Wind Visibility Clouds Conditions
260° at 9 knots 4 miles
  • Few at 2,000' AGL
  • Overcast at 3,500' AGL
  • Light Snow
Temperatures Readings
Current -30°C / -22°F
Dewpoint -33°C / -27°F
Humidity 75%
Altimeter 29.9" Hg
Pressure 1013.9 hPa
Elevation 67
METAR CYRB 180600Z 26009KT 4SM -SN FEW020 OVC035 M30/M33 A2990 RMK SC2SC6 SLP139
Observed Flight Rules
Feb-18 @ 06:00 UTC
(an hour ago)
MVFR
Wind Visibility
260° at 9 knots 4 miles
Clouds
  • Few at 2,000' AGL
  • Overcast at 3,500' AGL
Conditions
  • Light Snow
Temperature Dewpoint
-30°C / -22°F -33°C / -27°F
Humidity Altimeter Pressure
75% 29.9" Hg 1013.9 hPa